CDT,Max TemperatureF,Mean TemperatureF,Min TemperatureF,Max Dew PointF,MeanDew PointF,Min DewpointF,Max Humidity, Mean Humidity, Min Humidity, Max Sea Level PressureIn, Mean Sea Level PressureIn, Min Sea Level PressureIn, Max VisibilityMiles, Mean VisibilityMiles, Min VisibilityMiles, Max Wind SpeedMPH, Mean Wind SpeedMPH, Max Gust SpeedMPH,PrecipitationIn, CloudCover, Events, WindDirDegrees
2014-4-1,87,76,64,64,62,59,88,67,40,30.02,29.93,29.85,10,10,9,18,7,29,0.00,4,,171
2014-4-2,82,76,71,68,65,64,83,70,58,29.91,29.81,29.73,10,10,9,17,9,24,0.00,5,,170
2014-4-3,87,78,68,70,63,25,94,65,15,29.90,29.77,29.69,10,10,8,17,7,31,0.00,3,Thunderstorm,173
2014-4-4,75,62,50,34,29,14,50,30,11,30.21,30.11,29.90,10,10,8,20,12,25,0.00,0,Thunderstorm,36
2014-4-5,62,56,51,41,35,32,58,43,32,30.14,30.03,29.91,10,10,5,15,4,23,0.00,3,,104
2014-4-6,59,52,44,50,47,41,94,76,51,29.93,29.86,29.79,10,10,2,12,5,,0.00,6,Rain,35
2014-4-7,73,54,35,52,46,36,100,81,33,30.11,29.95,29.85,10,7,0,22,2,36,0.06,3,Fog-Rain-Thunderstorm,342
2014-4-8,77,62,46,48,37,30,94,51,19,30.28,30.19,30.11,10,10,10,22,6,34,0.00,0,Thunderstorm,330
2014-4-9,87,64,42,46,36,30,81,38,13,30.28,30.18,30.06,10,10,10,14,3,17,0.00,0,,181
2014-4-10,91,71,51,57,48,43,76,42,20,30.12,30.02,29.91,10,10,10,21,7,25,0.00,0,,182
2014-4-11,91,73,55,57,55,52,100,57,26,30.04,29.98,29.90,10,10,9,15,6,20,0.00,0,,175
2014-4-12,87,76,64,63,60,57,83,62,40,30.00,29.92,29.81,10,10,8,17,10,26,0.00,4,,178
2014-4-13,82,75,68,66,64,63,94,76,54,29.88,29.79,29.68,10,10,2,16,9,29,0.03,4,Rain,184
2014-4-14,69,58,46,68,41,27,94,58,34,30.30,30.03,29.72,10,9,5,30,10,36,0.00,4,Thunderstorm,359
2014-4-15,66,49,32,28,21,14,70,37,14,30.41,30.29,30.14,10,10,6,12,4,16,0.00,0,,30
2014-4-16,75,56,37,46,34,28,70,45,23,30.15,30.05,29.92,10,10,9,18,5,28,0.00,0,,161
2014-4-17,64,60,57,59,55,48,100,82,67,30.21,30.09,30.00,10,9,1,13,7,16,0.00,7,,128
2014-4-18,80,70,59,59,54,46,94,69,30,30.27,30.20,30.12,10,10,7,9,1,,0.00,4,,91
2014-4-19,80,66,51,55,52,48,94,63,37,30.21,30.15,30.06,10,10,8,14,3,20,0.00,1,,156
2014-4-20,75,68,62,64,60,55,94,75,61,30.16,30.12,30.06,10,10,3,14,4,18,0.02,7,Rain,157
2014-4-21,89,74,59,64,61,55,100,77,38,30.09,30.04,29.94,10,10,2,15,3,21,0.32,3,Rain-Thunderstorm,221
2014-4-22,86,72,57,63,57,52,100,64,31,30.11,30.04,29.96,10,10,7,10,3,16,0.00,0,Thunderstorm,76
2014-4-23,91,74,57,63,60,55,94,63,36,30.00,29.88,29.75,10,10,10,16,4,24,0.00,0,,163
2014-4-24,93,78,62,64,50,32,94,51,13,29.99,29.87,29.80,10,10,9,18,7,25,0.00,2,,319
2014-4-25,89,68,48,61,50,41,82,49,27,30.08,29.98,29.88,10,10,9,15,4,20,0.00,0,,139
2014-4-26,87,76,64,70,64,61,94,68,43,29.92,29.79,29.67,10,10,7,17,7,25,0.00,2,,158
2014-4-27,95,83,68,70,52,32,88,47,11,29.67,29.60,29.49,10,8,5,17,7,22,0.00,3,,237
2014-4-28,91,76,59,45,31,21,49,22,10,29.80,29.70,29.62,10,10,10,22,6,28,0.00,0,,301
2014-4-29,80,66,53,39,31,19,54,28,11,30.06,29.87,29.70,10,10,10,20,8,29,0.00,0,,350
2014-4-30,73,60,48,34,32,30,58,34,22,30.24,30.15,30.06,10,10,9,17,6,22,0.00,0,,360